sensor_id;sensor_type;location;lat;lon;timestamp;P1;durP1;ratioP1;P2;durP2;ratioP2
12433;SDS011;6281;49.038;8.372;2023-04-16T00:02:21;9.07;;;7.63;;
12433;SDS011;6281;49.038;8.372;2023-04-16T00:04:48;8.70;;;7.37;;
12433;SDS011;6281;49.038;8.372;2023-04-16T00:07:15;9.93;;;7.80;;
12433;SDS011;6281;49.038;8.372;2023-04-16T00:09:43;8.77;;;7.43;;
12433;SDS011;6281;49.038;8.372;2023-04-16T00:12:10;9.20;;;7.70;;
12433;SDS011;6281;49.038;8.372;2023-04-16T00:14:37;9.30;;;7.83;;
12433;SDS011;6281;49.038;8.372;2023-04-16T00:17:04;8.60;;;7.43;;
12433;SDS011;6281;49.038;8.372;2023-04-16T00:19:31;9.03;;;8.03;;
12433;SDS011;6281;49.038;8.372;2023-04-16T00:21:58;11.00;;;8.33;;
12433;SDS011;6281;49.038;8.372;2023-04-16T00:24:25;10.03;;;8.00;;
12433;SDS011;6281;49.038;8.372;2023-04-16T00:26:53;9.87;;;7.83;;
12433;SDS011;6281;49.038;8.372;2023-04-16T00:29:21;10.30;;;8.77;;
12433;SDS011;6281;49.038;8.372;2023-04-16T00:31:47;10.37;;;8.70;;
12433;SDS011;6281;49.038;8.372;2023-04-16T00:34:15;11.97;;;8.03;;
12433;SDS011;6281;49.038;8.372;2023-04-16T00:36:41;9.87;;;8.83;;
12433;SDS011;6281;49.038;8.372;2023-04-16T00:39:08;12.90;;;9.70;;
12433;SDS011;6281;49.038;8.372;2023-04-16T00:41:36;10.17;;;8.67;;
12433;SDS011;6281;49.038;8.372;2023-04-16T00:44:04;11.23;;;8.87;;
12433;SDS011;6281;49.038;8.372;2023-04-16T00:46:31;10.53;;;9.17;;
12433;SDS011;6281;49.038;8.372;2023-04-16T00:48:59;11.30;;;9.17;;
12433;SDS011;6281;49.038;8.372;2023-04-16T00:54:26;11.03;;;9.40;;
12433;SDS011;6281;49.038;8.372;2023-04-16T00:56:54;11.63;;;9.83;;
12433;SDS011;6281;49.038;8.372;2023-04-16T00:59:23;11.50;;;9.07;;
12433;SDS011;6281;49.038;8.372;2023-04-16T01:01:51;11.13;;;9.03;;
12433;SDS011;6281;49.038;8.372;2023-04-16T01:04:18;13.30;;;9.57;;
12433;SDS011;6281;49.038;8.372;2023-04-16T01:06:45;11.23;;;9.53;;
12433;SDS011;6281;49.038;8.372;2023-04-16T01:09:12;10.83;;;8.80;;
12433;SDS011;6281;49.038;8.372;2023-04-16T01:11:39;10.00;;;8.53;;
12433;SDS011;6281;49.038;8.372;2023-04-16T01:14:06;11.17;;;9.03;;
12433;SDS011;6281;49.038;8.372;2023-04-16T01:16:34;11.87;;;9.77;;
12433;SDS011;6281;49.038;8.372;2023-04-16T01:19:01;14.13;;;10.03;;
12433;SDS011;6281;49.038;8.372;2023-04-16T01:21:29;12.60;;;10.00;;
12433;SDS011;6281;49.038;8.372;2023-04-16T01:23:56;12.77;;;10.47;;
12433;SDS011;6281;49.038;8.372;2023-04-16T01:26:27;11.73;;;9.77;;
12433;SDS011;6281;49.038;8.372;2023-04-16T01:28:54;14.13;;;10.80;;
12433;SDS011;6281;49.038;8.372;2023-04-16T01:31:20;14.20;;;11.20;;
12433;SDS011;6281;49.038;8.372;2023-04-16T01:33:47;13.70;;;10.23;;
12433;SDS011;6281;49.038;8.372;2023-04-16T01:36:14;14.20;;;11.03;;
12433;SDS011;6281;49.038;8.372;2023-04-16T01:38:43;15.47;;;11.17;;
12433;SDS011;6281;49.038;8.372;2023-04-16T01:41:09;13.93;;;11.13;;
12433;SDS011;6281;49.038;8.372;2023-04-16T01:43:36;12.53;;;10.17;;
12433;SDS011;6281;49.038;8.372;2023-04-16T01:46:13;16.23;;;12.07;;
12433;SDS011;6281;49.038;8.372;2023-04-16T01:48:43;14.07;;;10.90;;
12433;SDS011;6281;49.038;8.372;2023-04-16T01:51:10;13.93;;;11.73;;
12433;SDS011;6281;49.038;8.372;2023-04-16T01:53:37;15.83;;;12.40;;
12433;SDS011;6281;49.038;8.372;2023-04-16T01:56:06;14.37;;;11.43;;
12433;SDS011;6281;49.038;8.372;2023-04-16T01:58:33;16.27;;;12.77;;
12433;SDS011;6281;49.038;8.372;2023-04-16T02:01:00;16.37;;;12.70;;
12433;SDS011;6281;49.038;8.372;2023-04-16T02:03:28;17.60;;;13.50;;
12433;SDS011;6281;49.038;8.372;2023-04-16T02:05:56;20.47;;;14.30;;
12433;SDS011;6281;49.038;8.372;2023-04-16T02:08:22;16.87;;;13.60;;
12433;SDS011;6281;49.038;8.372;2023-04-16T02:10:49;16.73;;;12.43;;
12433;SDS011;6281;49.038;8.372;2023-04-16T02:13:18;16.33;;;13.63;;
12433;SDS011;6281;49.038;8.372;2023-04-16T02:15:45;17.13;;;12.83;;
12433;SDS011;6281;49.038;8.372;2023-04-16T02:18:12;16.10;;;12.80;;
12433;SDS011;6281;49.038;8.372;2023-04-16T02:20:39;15.93;;;13.40;;
12433;SDS011;6281;49.038;8.372;2023-04-16T02:23:07;17.50;;;13.60;;
12433;SDS011;6281;49.038;8.372;2023-04-16T02:25:37;18.43;;;14.03;;
12433;SDS011;6281;49.038;8.372;2023-04-16T02:28:05;18.37;;;14.30;;
12433;SDS011;6281;49.038;8.372;2023-04-16T02:30:34;16.53;;;13.10;;
12433;SDS011;6281;49.038;8.372;2023-04-16T02:33:01;17.10;;;13.30;;
12433;SDS011;6281;49.038;8.372;2023-04-16T02:35:29;16.93;;;13.60;;
12433;SDS011;6281;49.038;8.372;2023-04-16T02:37:56;16.10;;;12.93;;
12433;SDS011;6281;49.038;8.372;2023-04-16T02:40:23;17.13;;;12.47;;
12433;SDS011;6281;49.038;8.372;2023-04-16T02:42:51;16.53;;;13.67;;
12433;SDS011;6281;49.038;8.372;2023-04-16T02:45:18;14.87;;;12.47;;
12433;SDS011;6281;49.038;8.372;2023-04-16T02:47:46;15.87;;;12.13;;
12433;SDS011;6281;49.038;8.372;2023-04-16T02:50:13;14.10;;;10.87;;
12433;SDS011;6281;49.038;8.372;2023-04-16T02:52:40;14.33;;;11.10;;
12433;SDS011;6281;49.038;8.372;2023-04-16T02:55:08;14.47;;;11.90;;
12433;SDS011;6281;49.038;8.372;2023-04-16T02:57:35;14.27;;;11.37;;
12433;SDS011;6281;49.038;8.372;2023-04-16T03:00:03;13.47;;;10.93;;
12433;SDS011;6281;49.038;8.372;2023-04-16T03:02:30;13.83;;;11.10;;
12433;SDS011;6281;49.038;8.372;2023-04-16T03:04:58;13.53;;;10.87;;
12433;SDS011;6281;49.038;8.372;2023-04-16T03:07:25;14.33;;;11.67;;
12433;SDS011;6281;49.038;8.372;2023-04-16T03:09:52;13.63;;;11.27;;
12433;SDS011;6281;49.038;8.372;2023-04-16T03:12:19;14.13;;;11.63;;
12433;SDS011;6281;49.038;8.372;2023-04-16T03:14:46;14.83;;;12.03;;
12433;SDS011;6281;49.038;8.372;2023-04-16T03:17:13;15.97;;;12.83;;
12433;SDS011;6281;49.038;8.372;2023-04-16T03:19:40;15.50;;;12.77;;
12433;SDS011;6281;49.038;8.372;2023-04-16T03:22:08;15.10;;;12.27;;
12433;SDS011;6281;49.038;8.372;2023-04-16T03:24:35;13.90;;;11.43;;
12433;SDS011;6281;49.038;8.372;2023-04-16T03:27:02;13.60;;;11.67;;
12433;SDS011;6281;49.038;8.372;2023-04-16T03:29:29;14.67;;;11.93;;
12433;SDS011;6281;49.038;8.372;2023-04-16T03:31:56;14.57;;;12.20;;
12433;SDS011;6281;49.038;8.372;2023-04-16T03:34:23;14.77;;;12.47;;
12433;SDS011;6281;49.038;8.372;2023-04-16T03:36:50;15.60;;;12.10;;
12433;SDS011;6281;49.038;8.372;2023-04-16T03:39:18;13.77;;;11.23;;
12433;SDS011;6281;49.038;8.372;2023-04-16T03:41:45;16.13;;;11.20;;
12433;SDS011;6281;49.038;8.372;2023-04-16T03:44:12;12.30;;;10.23;;
12433;SDS011;6281;49.038;8.372;2023-04-16T03:46:39;14.77;;;10.13;;
12433;SDS011;6281;49.038;8.372;2023-04-16T03:49:06;12.53;;;9.37;;
12433;SDS011;6281;49.038;8.372;2023-04-16T03:51:33;11.80;;;9.77;;
12433;SDS011;6281;49.038;8.372;2023-04-16T03:54:00;12.07;;;9.17;;
12433;SDS011;6281;49.038;8.372;2023-04-16T03:56:28;13.70;;;10.00;;
12433;SDS011;6281;49.038;8.372;2023-04-16T03:58:55;13.80;;;9.23;;
12433;SDS011;6281;49.038;8.372;2023-04-16T04:01:22;13.10;;;9.97;;
12433;SDS011;6281;49.038;8.372;2023-04-16T04:03:49;12.80;;;9.93;;
12433;SDS011;6281;49.038;8.372;2023-04-16T04:06:16;12.90;;;10.07;;
12433;SDS011;6281;49.038;8.372;2023-04-16T04:08:43;14.23;;;10.60;;
12433;SDS011;6281;49.038;8.372;2023-04-16T04:11:10;12.67;;;10.60;;
12433;SDS011;6281;49.038;8.372;2023-04-16T04:13:38;12.33;;;9.67;;
12433;SDS011;6281;49.038;8.372;2023-04-16T04:16:05;14.97;;;10.30;;
12433;SDS011;6281;49.038;8.372;2023-04-16T04:18:32;13.67;;;9.93;;
12433;SDS011;6281;49.038;8.372;2023-04-16T04:21:03;12.13;;;10.20;;
12433;SDS011;6281;49.038;8.372;2023-04-16T04:23:30;14.80;;;10.03;;
12433;SDS011;6281;49.038;8.372;2023-04-16T04:25:57;13.83;;;9.83;;
12433;SDS011;6281;49.038;8.372;2023-04-16T04:28:27;12.77;;;9.57;;
12433;SDS011;6281;49.038;8.372;2023-04-16T04:30:56;13.57;;;9.30;;
12433;SDS011;6281;49.038;8.372;2023-04-16T04:33:24;13.83;;;9.70;;
12433;SDS011;6281;49.038;8.372;2023-04-16T04:35:51;13.47;;;10.03;;
12433;SDS011;6281;49.038;8.372;2023-04-16T04:38:17;13.37;;;10.60;;
12433;SDS011;6281;49.038;8.372;2023-04-16T04:40:46;12.33;;;9.97;;
12433;SDS011;6281;49.038;8.372;2023-04-16T04:43:13;14.60;;;9.67;;
12433;SDS011;6281;49.038;8.372;2023-04-16T04:45:40;13.97;;;9.97;;
12433;SDS011;6281;49.038;8.372;2023-04-16T04:48:08;14.00;;;10.97;;
12433;SDS011;6281;49.038;8.372;2023-04-16T04:50:35;13.33;;;9.77;;
12433;SDS011;6281;49.038;8.372;2023-04-16T04:53:02;16.27;;;9.73;;
12433;SDS011;6281;49.038;8.372;2023-04-16T04:55:33;13.90;;;9.67;;
12433;SDS011;6281;49.038;8.372;2023-04-16T04:58:01;14.90;;;9.93;;
12433;SDS011;6281;49.038;8.372;2023-04-16T05:00:28;13.87;;;10.47;;
12433;SDS011;6281;49.038;8.372;2023-04-16T05:02:55;13.67;;;9.73;;
12433;SDS011;6281;49.038;8.372;2023-04-16T05:05:23;13.50;;;10.30;;
12433;SDS011;6281;49.038;8.372;2023-04-16T05:07:50;15.30;;;10.00;;
12433;SDS011;6281;49.038;8.372;2023-04-16T05:10:17;14.10;;;10.40;;
12433;SDS011;6281;49.038;8.372;2023-04-16T05:12:44;14.80;;;10.47;;
12433;SDS011;6281;49.038;8.372;2023-04-16T05:15:12;13.63;;;10.43;;
12433;SDS011;6281;49.038;8.372;2023-04-16T05:17:39;14.37;;;10.23;;
12433;SDS011;6281;49.038;8.372;2023-04-16T05:20:07;13.97;;;10.87;;
12433;SDS011;6281;49.038;8.372;2023-04-16T05:22:35;15.60;;;10.80;;
12433;SDS011;6281;49.038;8.372;2023-04-16T05:25:03;14.20;;;10.17;;
12433;SDS011;6281;49.038;8.372;2023-04-16T05:27:30;13.77;;;9.90;;
12433;SDS011;6281;49.038;8.372;2023-04-16T05:29:57;13.77;;;10.10;;
12433;SDS011;6281;49.038;8.372;2023-04-16T05:32:24;14.83;;;10.00;;
12433;SDS011;6281;49.038;8.372;2023-04-16T05:34:52;15.10;;;10.03;;
12433;SDS011;6281;49.038;8.372;2023-04-16T05:37:19;14.80;;;10.13;;
12433;SDS011;6281;49.038;8.372;2023-04-16T05:39:47;13.37;;;10.20;;
12433;SDS011;6281;49.038;8.372;2023-04-16T05:42:14;13.77;;;10.10;;
12433;SDS011;6281;49.038;8.372;2023-04-16T05:44:41;14.20;;;10.27;;
12433;SDS011;6281;49.038;8.372;2023-04-16T05:47:08;14.73;;;9.80;;
12433;SDS011;6281;49.038;8.372;2023-04-16T05:49:35;14.50;;;10.30;;
12433;SDS011;6281;49.038;8.372;2023-04-16T05:52:02;14.40;;;11.17;;
12433;SDS011;6281;49.038;8.372;2023-04-16T05:54:29;13.17;;;8.90;;
12433;SDS011;6281;49.038;8.372;2023-04-16T05:56:58;14.43;;;10.60;;
12433;SDS011;6281;49.038;8.372;2023-04-16T05:59:25;15.37;;;9.77;;
12433;SDS011;6281;49.038;8.372;2023-04-16T06:01:53;14.40;;;9.80;;
12433;SDS011;6281;49.038;8.372;2023-04-16T06:04:20;14.00;;;9.33;;
12433;SDS011;6281;49.038;8.372;2023-04-16T06:06:47;13.23;;;9.63;;
12433;SDS011;6281;49.038;8.372;2023-04-16T06:09:13;14.47;;;10.10;;
12433;SDS011;6281;49.038;8.372;2023-04-16T06:11:40;14.63;;;9.93;;
12433;SDS011;6281;49.038;8.372;2023-04-16T06:14:09;14.57;;;10.33;;
12433;SDS011;6281;49.038;8.372;2023-04-16T06:16:36;13.60;;;9.87;;
12433;SDS011;6281;49.038;8.372;2023-04-16T06:19:03;13.97;;;9.50;;
12433;SDS011;6281;49.038;8.372;2023-04-16T06:21:30;13.27;;;9.37;;
12433;SDS011;6281;49.038;8.372;2023-04-16T06:23:57;13.57;;;9.30;;
12433;SDS011;6281;49.038;8.372;2023-04-16T06:26:24;11.97;;;9.00;;
12433;SDS011;6281;49.038;8.372;2023-04-16T06:28:51;12.77;;;8.33;;
12433;SDS011;6281;49.038;8.372;2023-04-16T06:31:19;11.63;;;8.30;;
12433;SDS011;6281;49.038;8.372;2023-04-16T06:33:46;12.93;;;9.50;;
12433;SDS011;6281;49.038;8.372;2023-04-16T06:36:13;12.07;;;8.77;;
12433;SDS011;6281;49.038;8.372;2023-04-16T06:38:40;12.20;;;8.33;;
12433;SDS011;6281;49.038;8.372;2023-04-16T06:41:07;11.93;;;8.00;;
12433;SDS011;6281;49.038;8.372;2023-04-16T06:43:34;11.13;;;8.00;;
12433;SDS011;6281;49.038;8.372;2023-04-16T06:46:01;9.97;;;7.87;;
12433;SDS011;6281;49.038;8.372;2023-04-16T06:48:30;14.37;;;7.83;;
12433;SDS011;6281;49.038;8.372;2023-04-16T06:51:12;11.00;;;8.10;;
12433;SDS011;6281;49.038;8.372;2023-04-16T06:53:39;10.53;;;7.50;;
12433;SDS011;6281;49.038;8.372;2023-04-16T06:56:06;9.87;;;6.43;;
12433;SDS011;6281;49.038;8.372;2023-04-16T06:58:33;10.37;;;7.00;;
12433;SDS011;6281;49.038;8.372;2023-04-16T07:01:00;11.03;;;7.70;;
12433;SDS011;6281;49.038;8.372;2023-04-16T07:03:27;10.23;;;6.97;;
12433;SDS011;6281;49.038;8.372;2023-04-16T07:05:56;9.10;;;5.93;;
12433;SDS011;6281;49.038;8.372;2023-04-16T07:08:23;8.63;;;6.40;;
12433;SDS011;6281;49.038;8.372;2023-04-16T07:10:50;9.40;;;7.10;;
12433;SDS011;6281;49.038;8.372;2023-04-16T07:13:17;8.87;;;6.17;;
12433;SDS011;6281;49.038;8.372;2023-04-16T07:15:45;9.97;;;7.37;;
12433;SDS011;6281;49.038;8.372;2023-04-16T07:18:12;10.27;;;6.53;;
12433;SDS011;6281;49.038;8.372;2023-04-16T07:20:40;9.43;;;6.50;;
12433;SDS011;6281;49.038;8.372;2023-04-16T07:23:07;11.67;;;6.93;;
12433;SDS011;6281;49.038;8.372;2023-04-16T07:25:34;10.53;;;6.57;;
12433;SDS011;6281;49.038;8.372;2023-04-16T07:28:01;11.20;;;7.53;;
12433;SDS011;6281;49.038;8.372;2023-04-16T07:30:29;8.07;;;6.30;;
12433;SDS011;6281;49.038;8.372;2023-04-16T07:32:58;9.33;;;6.73;;
12433;SDS011;6281;49.038;8.372;2023-04-16T07:35:25;7.70;;;6.30;;
12433;SDS011;6281;49.038;8.372;2023-04-16T07:37:53;9.97;;;6.60;;
12433;SDS011;6281;49.038;8.372;2023-04-16T07:40:21;10.57;;;6.50;;
12433;SDS011;6281;49.038;8.372;2023-04-16T07:42:48;9.40;;;6.40;;
12433;SDS011;6281;49.038;8.372;2023-04-16T07:45:16;9.17;;;6.47;;
12433;SDS011;6281;49.038;8.372;2023-04-16T07:47:43;8.37;;;6.10;;
12433;SDS011;6281;49.038;8.372;2023-04-16T07:50:10;9.80;;;7.17;;
12433;SDS011;6281;49.038;8.372;2023-04-16T07:52:37;9.20;;;6.50;;
12433;SDS011;6281;49.038;8.372;2023-04-16T07:55:08;9.07;;;6.17;;
12433;SDS011;6281;49.038;8.372;2023-04-16T07:57:35;8.80;;;6.47;;
12433;SDS011;6281;49.038;8.372;2023-04-16T08:00:02;10.07;;;6.83;;
12433;SDS011;6281;49.038;8.372;2023-04-16T08:02:30;11.47;;;7.23;;
12433;SDS011;6281;49.038;8.372;2023-04-16T08:04:57;9.67;;;6.60;;
12433;SDS011;6281;49.038;8.372;2023-04-16T08:07:24;9.67;;;6.90;;
12433;SDS011;6281;49.038;8.372;2023-04-16T08:09:51;11.77;;;7.20;;
12433;SDS011;6281;49.038;8.372;2023-04-16T08:12:20;10.37;;;5.70;;
12433;SDS011;6281;49.038;8.372;2023-04-16T08:14:47;11.40;;;6.87;;
12433;SDS011;6281;49.038;8.372;2023-04-16T08:17:14;9.73;;;6.80;;
12433;SDS011;6281;49.038;8.372;2023-04-16T08:19:41;10.03;;;7.10;;
12433;SDS011;6281;49.038;8.372;2023-04-16T08:22:08;10.63;;;6.63;;
12433;SDS011;6281;49.038;8.372;2023-04-16T08:24:35;10.00;;;7.20;;
12433;SDS011;6281;49.038;8.372;2023-04-16T08:27:02;8.93;;;6.60;;
12433;SDS011;6281;49.038;8.372;2023-04-16T08:29:31;9.40;;;6.43;;
12433;SDS011;6281;49.038;8.372;2023-04-16T08:31:58;8.87;;;6.23;;
12433;SDS011;6281;49.038;8.372;2023-04-16T08:34:25;9.50;;;6.20;;
12433;SDS011;6281;49.038;8.372;2023-04-16T08:36:52;8.07;;;5.47;;
12433;SDS011;6281;49.038;8.372;2023-04-16T08:39:20;9.87;;;6.30;;
12433;SDS011;6281;49.038;8.372;2023-04-16T08:41:46;9.37;;;5.10;;
12433;SDS011;6281;49.038;8.372;2023-04-16T08:44:16;10.33;;;6.60;;
12433;SDS011;6281;49.038;8.372;2023-04-16T08:46:48;9.67;;;6.70;;
12433;SDS011;6281;49.038;8.372;2023-04-16T08:49:16;9.33;;;5.33;;
12433;SDS011;6281;49.038;8.372;2023-04-16T08:51:44;9.53;;;6.70;;
12433;SDS011;6281;49.038;8.372;2023-04-16T08:54:18;8.47;;;6.17;;
12433;SDS011;6281;49.038;8.372;2023-04-16T08:56:56;11.80;;;7.20;;
12433;SDS011;6281;49.038;8.372;2023-04-16T08:59:24;9.43;;;6.60;;
12433;SDS011;6281;49.038;8.372;2023-04-16T09:01:53;11.43;;;7.27;;
12433;SDS011;6281;49.038;8.372;2023-04-16T09:04:24;8.43;;;6.43;;
12433;SDS011;6281;49.038;8.372;2023-04-16T09:06:52;8.47;;;6.43;;
12433;SDS011;6281;49.038;8.372;2023-04-16T09:09:20;9.10;;;5.87;;
12433;SDS011;6281;49.038;8.372;2023-04-16T09:11:49;9.60;;;7.30;;
12433;SDS011;6281;49.038;8.372;2023-04-16T09:14:17;9.30;;;6.87;;
12433;SDS011;6281;49.038;8.372;2023-04-16T09:16:44;9.73;;;6.67;;
12433;SDS011;6281;49.038;8.372;2023-04-16T09:19:13;10.87;;;7.03;;
12433;SDS011;6281;49.038;8.372;2023-04-16T09:21:40;9.70;;;6.37;;
12433;SDS011;6281;49.038;8.372;2023-04-16T09:24:10;9.93;;;6.87;;
12433;SDS011;6281;49.038;8.372;2023-04-16T09:26:37;9.77;;;6.50;;
12433;SDS011;6281;49.038;8.372;2023-04-16T09:29:07;9.30;;;6.33;;
12433;SDS011;6281;49.038;8.372;2023-04-16T09:31:34;10.00;;;6.83;;
12433;SDS011;6281;49.038;8.372;2023-04-16T09:34:01;10.20;;;6.67;;
12433;SDS011;6281;49.038;8.372;2023-04-16T09:36:31;11.67;;;7.30;;
12433;SDS011;6281;49.038;8.372;2023-04-16T09:38:58;10.10;;;7.00;;
12433;SDS011;6281;49.038;8.372;2023-04-16T09:41:26;10.47;;;7.30;;
12433;SDS011;6281;49.038;8.372;2023-04-16T09:43:54;11.73;;;7.30;;
12433;SDS011;6281;49.038;8.372;2023-04-16T09:46:23;9.97;;;6.73;;
12433;SDS011;6281;49.038;8.372;2023-04-16T09:48:50;10.07;;;6.40;;
12433;SDS011;6281;49.038;8.372;2023-04-16T09:51:17;8.90;;;6.47;;
12433;SDS011;6281;49.038;8.372;2023-04-16T09:53:46;8.80;;;6.27;;
12433;SDS011;6281;49.038;8.372;2023-04-16T09:56:16;9.20;;;6.33;;
12433;SDS011;6281;49.038;8.372;2023-04-16T09:58:43;10.63;;;6.93;;
12433;SDS011;6281;49.038;8.372;2023-04-16T10:01:10;11.67;;;6.83;;
12433;SDS011;6281;49.038;8.372;2023-04-16T10:03:38;10.23;;;7.10;;
12433;SDS011;6281;49.038;8.372;2023-04-16T10:06:06;10.00;;;7.17;;
12433;SDS011;6281;49.038;8.372;2023-04-16T10:08:41;10.90;;;7.20;;
12433;SDS011;6281;49.038;8.372;2023-04-16T10:11:10;9.60;;;6.90;;
12433;SDS011;6281;49.038;8.372;2023-04-16T10:13:37;11.47;;;7.90;;
12433;SDS011;6281;49.038;8.372;2023-04-16T10:16:04;9.17;;;6.97;;
12433;SDS011;6281;49.038;8.372;2023-04-16T10:18:33;11.27;;;7.63;;
12433;SDS011;6281;49.038;8.372;2023-04-16T10:21:02;11.77;;;6.97;;
12433;SDS011;6281;49.038;8.372;2023-04-16T10:23:29;10.70;;;7.23;;
12433;SDS011;6281;49.038;8.372;2023-04-16T10:25:57;14.80;;;7.90;;
12433;SDS011;6281;49.038;8.372;2023-04-16T10:28:27;10.30;;;7.37;;
12433;SDS011;6281;49.038;8.372;2023-04-16T10:30:54;11.00;;;7.43;;
12433;SDS011;6281;49.038;8.372;2023-04-16T10:33:25;10.77;;;7.27;;
12433;SDS011;6281;49.038;8.372;2023-04-16T10:36:06;8.73;;;6.97;;
12433;SDS011;6281;49.038;8.372;2023-04-16T10:38:36;8.83;;;6.63;;
12433;SDS011;6281;49.038;8.372;2023-04-16T10:41:05;9.03;;;6.47;;
12433;SDS011;6281;49.038;8.372;2023-04-16T10:43:39;10.57;;;6.97;;
12433;SDS011;6281;49.038;8.372;2023-04-16T10:46:16;8.37;;;6.60;;
12433;SDS011;6281;49.038;8.372;2023-04-16T10:48:47;8.63;;;6.83;;
12433;SDS011;6281;49.038;8.372;2023-04-16T10:51:22;9.73;;;6.83;;
12433;SDS011;6281;49.038;8.372;2023-04-16T10:53:52;9.20;;;7.20;;
12433;SDS011;6281;49.038;8.372;2023-04-16T10:56:23;9.93;;;6.30;;
12433;SDS011;6281;49.038;8.372;2023-04-16T10:58:53;9.87;;;6.97;;
12433;SDS011;6281;49.038;8.372;2023-04-16T11:01:27;10.97;;;7.00;;
12433;SDS011;6281;49.038;8.372;2023-04-16T11:03:57;11.20;;;7.00;;
12433;SDS011;6281;49.038;8.372;2023-04-16T11:06:26;8.77;;;5.83;;
12433;SDS011;6281;49.038;8.372;2023-04-16T11:08:54;9.60;;;6.60;;
12433;SDS011;6281;49.038;8.372;2023-04-16T11:11:21;8.60;;;6.30;;
12433;SDS011;6281;49.038;8.372;2023-04-16T11:13:48;8.63;;;6.93;;
12433;SDS011;6281;49.038;8.372;2023-04-16T11:16:21;9.73;;;7.27;;
12433;SDS011;6281;49.038;8.372;2023-04-16T11:18:49;10.63;;;7.47;;
12433;SDS011;6281;49.038;8.372;2023-04-16T11:21:16;11.80;;;7.87;;
12433;SDS011;6281;49.038;8.372;2023-04-16T11:23:47;9.43;;;7.47;;
12433;SDS011;6281;49.038;8.372;2023-04-16T11:26:22;11.53;;;7.83;;
12433;SDS011;6281;49.038;8.372;2023-04-16T11:28:50;11.00;;;7.10;;
12433;SDS011;6281;49.038;8.372;2023-04-16T11:31:17;9.83;;;7.00;;
12433;SDS011;6281;49.038;8.372;2023-04-16T11:33:45;9.57;;;7.23;;
12433;SDS011;6281;49.038;8.372;2023-04-16T11:36:12;9.60;;;6.47;;
12433;SDS011;6281;49.038;8.372;2023-04-16T11:38:39;9.30;;;5.53;;
12433;SDS011;6281;49.038;8.372;2023-04-16T11:41:07;10.83;;;6.23;;
12433;SDS011;6281;49.038;8.372;2023-04-16T11:43:34;9.37;;;6.70;;
12433;SDS011;6281;49.038;8.372;2023-04-16T11:46:02;10.30;;;7.67;;
12433;SDS011;6281;49.038;8.372;2023-04-16T11:48:48;9.37;;;6.50;;
12433;SDS011;6281;49.038;8.372;2023-04-16T11:51:15;9.20;;;6.40;;
12433;SDS011;6281;49.038;8.372;2023-04-16T11:53:47;10.33;;;6.43;;
12433;SDS011;6281;49.038;8.372;2023-04-16T11:56:15;11.67;;;7.93;;
12433;SDS011;6281;49.038;8.372;2023-04-16T11:59:04;9.17;;;7.00;;
12433;SDS011;6281;49.038;8.372;2023-04-16T12:01:36;9.80;;;6.57;;
12433;SDS011;6281;49.038;8.372;2023-04-16T12:04:06;9.50;;;6.60;;
12433;SDS011;6281;49.038;8.372;2023-04-16T12:06:33;9.30;;;6.90;;
12433;SDS011;6281;49.038;8.372;2023-04-16T12:09:20;10.57;;;6.70;;
12433;SDS011;6281;49.038;8.372;2023-04-16T12:11:48;9.77;;;6.00;;
12433;SDS011;6281;49.038;8.372;2023-04-16T12:14:15;8.43;;;6.03;;
12433;SDS011;6281;49.038;8.372;2023-04-16T12:16:41;7.80;;;5.93;;
12433;SDS011;6281;49.038;8.372;2023-04-16T12:19:11;8.03;;;5.67;;
12433;SDS011;6281;49.038;8.372;2023-04-16T12:21:38;8.60;;;6.10;;
12433;SDS011;6281;49.038;8.372;2023-04-16T12:24:07;11.63;;;7.43;;
12433;SDS011;6281;49.038;8.372;2023-04-16T12:26:44;8.83;;;6.50;;
12433;SDS011;6281;49.038;8.372;2023-04-16T12:29:13;10.13;;;6.93;;
12433;SDS011;6281;49.038;8.372;2023-04-16T12:31:45;7.90;;;6.57;;
12433;SDS011;6281;49.038;8.372;2023-04-16T12:34:14;10.07;;;7.17;;
12433;SDS011;6281;49.038;8.372;2023-04-16T12:36:41;8.77;;;6.53;;
12433;SDS011;6281;49.038;8.372;2023-04-16T12:39:08;8.53;;;5.97;;
12433;SDS011;6281;49.038;8.372;2023-04-16T12:41:36;9.63;;;6.20;;
12433;SDS011;6281;49.038;8.372;2023-04-16T12:44:04;8.67;;;6.50;;
12433;SDS011;6281;49.038;8.372;2023-04-16T12:46:35;9.13;;;6.63;;
12433;SDS011;6281;49.038;8.372;2023-04-16T12:49:02;10.00;;;6.53;;
12433;SDS011;6281;49.038;8.372;2023-04-16T12:51:31;9.90;;;6.43;;
12433;SDS011;6281;49.038;8.372;2023-04-16T12:54:01;8.77;;;5.80;;
12433;SDS011;6281;49.038;8.372;2023-04-16T12:56:29;9.30;;;6.23;;
12433;SDS011;6281;49.038;8.372;2023-04-16T12:58:57;7.37;;;5.67;;
12433;SDS011;6281;49.038;8.372;2023-04-16T13:01:26;7.87;;;5.77;;
12433;SDS011;6281;49.038;8.372;2023-04-16T13:03:56;7.60;;;5.70;;
12433;SDS011;6281;49.038;8.372;2023-04-16T13:06:23;9.13;;;5.67;;
12433;SDS011;6281;49.038;8.372;2023-04-16T13:08:52;11.13;;;6.17;;
12433;SDS011;6281;49.038;8.372;2023-04-16T13:11:18;8.53;;;6.10;;
12433;SDS011;6281;49.038;8.372;2023-04-16T13:13:47;8.70;;;6.47;;
12433;SDS011;6281;49.038;8.372;2023-04-16T13:16:13;7.73;;;5.10;;
12433;SDS011;6281;49.038;8.372;2023-04-16T13:18:40;8.03;;;5.80;;
12433;SDS011;6281;49.038;8.372;2023-04-16T13:21:07;9.10;;;6.10;;
12433;SDS011;6281;49.038;8.372;2023-04-16T13:23:34;8.27;;;6.03;;
12433;SDS011;6281;49.038;8.372;2023-04-16T13:26:02;8.30;;;5.93;;
12433;SDS011;6281;49.038;8.372;2023-04-16T13:28:29;9.77;;;6.50;;
12433;SDS011;6281;49.038;8.372;2023-04-16T13:30:56;8.00;;;6.13;;
12433;SDS011;6281;49.038;8.372;2023-04-16T13:33:22;10.27;;;6.63;;
12433;SDS011;6281;49.038;8.372;2023-04-16T13:35:49;9.27;;;6.10;;
12433;SDS011;6281;49.038;8.372;2023-04-16T13:38:16;7.87;;;5.70;;
12433;SDS011;6281;49.038;8.372;2023-04-16T13:40:43;10.23;;;6.20;;
12433;SDS011;6281;49.038;8.372;2023-04-16T13:43:12;10.67;;;6.53;;
12433;SDS011;6281;49.038;8.372;2023-04-16T13:45:41;7.93;;;6.07;;
12433;SDS011;6281;49.038;8.372;2023-04-16T13:48:08;8.97;;;5.83;;
12433;SDS011;6281;49.038;8.372;2023-04-16T13:50:35;11.03;;;6.90;;
12433;SDS011;6281;49.038;8.372;2023-04-16T13:53:02;9.40;;;6.80;;
12433;SDS011;6281;49.038;8.372;2023-04-16T13:55:29;7.90;;;6.03;;
12433;SDS011;6281;49.038;8.372;2023-04-16T13:57:56;10.17;;;6.50;;
12433;SDS011;6281;49.038;8.372;2023-04-16T14:00:26;10.53;;;7.40;;
12433;SDS011;6281;49.038;8.372;2023-04-16T14:02:53;8.87;;;6.17;;
12433;SDS011;6281;49.038;8.372;2023-04-16T14:05:20;10.17;;;6.90;;
12433;SDS011;6281;49.038;8.372;2023-04-16T14:07:48;8.73;;;6.53;;
12433;SDS011;6281;49.038;8.372;2023-04-16T14:10:15;9.83;;;6.80;;
12433;SDS011;6281;49.038;8.372;2023-04-16T14:12:42;9.00;;;6.50;;
12433;SDS011;6281;49.038;8.372;2023-04-16T14:15:09;8.27;;;6.73;;
12433;SDS011;6281;49.038;8.372;2023-04-16T14:17:40;10.20;;;7.07;;
12433;SDS011;6281;49.038;8.372;2023-04-16T14:20:08;8.93;;;6.80;;
12433;SDS011;6281;49.038;8.372;2023-04-16T14:22:36;9.07;;;7.07;;
12433;SDS011;6281;49.038;8.372;2023-04-16T14:25:03;12.20;;;8.30;;
12433;SDS011;6281;49.038;8.372;2023-04-16T14:27:31;11.33;;;8.10;;
12433;SDS011;6281;49.038;8.372;2023-04-16T14:29:59;12.50;;;8.33;;
12433;SDS011;6281;49.038;8.372;2023-04-16T14:32:26;11.80;;;8.43;;
12433;SDS011;6281;49.038;8.372;2023-04-16T14:34:55;13.40;;;8.80;;
12433;SDS011;6281;49.038;8.372;2023-04-16T14:37:22;12.90;;;9.13;;
12433;SDS011;6281;49.038;8.372;2023-04-16T14:39:50;13.20;;;9.20;;
12433;SDS011;6281;49.038;8.372;2023-04-16T14:42:17;12.93;;;8.60;;
12433;SDS011;6281;49.038;8.372;2023-04-16T14:44:44;15.20;;;10.03;;
12433;SDS011;6281;49.038;8.372;2023-04-16T14:47:11;14.90;;;10.33;;
12433;SDS011;6281;49.038;8.372;2023-04-16T14:49:38;16.53;;;10.13;;
12433;SDS011;6281;49.038;8.372;2023-04-16T14:52:06;14.50;;;10.40;;
12433;SDS011;6281;49.038;8.372;2023-04-16T14:54:33;16.07;;;10.60;;
12433;SDS011;6281;49.038;8.372;2023-04-16T14:57:00;14.47;;;10.27;;